Rochester, Illinois
Current Conditions -  °F | °C
As of 5:52 PM on Sunday 23 Nov 2014 (Local Time) from KSPI Reporting Station
Light Rain Light Rain  
Wind Chill: 52°   Ceiling: 600
Heat Index: 52°   Visibility: 6mi
Dew Point: 51°   Wind: 7mph
Humidity: 97%   Direction: 160°SSE
Pressure: 29.31"   Gusts: NA
Location:  39.75°N, 89.53°W
Report Text: KSPI 232352Z 16006KT 6SM -RA BR OVC006 11/11 A2931 RMK AO2 SLP925 P0007 60046 T01110106 10122 20111 56032
Loading
Personal Weather Stations






























Interactive Weather Map New forecast layout! Learn more

10-Day Weather Forecast

Advertisements
Track Severe Weather on mobile